Time;durP1;ratioP1;P1;durP2;ratioP2;P2;SDS_P1;SDS_P2;PMS_P1;PMS_P2;Temp;Humidity;BMP_temperature;BMP_pressure;BME280_temperature;BME280_humidity;BME280_pressure;Samples;Min_cycle;Max_cycle;Signal;HPM_P1;HPM_P2
2021/08/31 00:00:43;;;;;;;18.25;4.55;;;15.00;99.90;;;;;;5034197;28;20064;-58
2021/08/31 00:03:09;;;;;;;16.67;4.28;;;14.90;99.90;;;;;;5033362;28;20029;-59
2021/08/31 00:05:35;;;;;;;14.52;4.20;;;14.90;99.90;;;;;;5032842;28;20110;-59
2021/08/31 00:08:00;;;;;;;16.63;4.45;;;14.90;99.90;;;;;;5033310;28;20081;-58
2021/08/31 00:10:26;;;;;;;13.52;4.25;;;14.90;99.90;;;;;;5034092;28;20053;-61
2021/08/31 00:12:52;;;;;;;15.65;4.03;;;14.90;99.90;;;;;;5033602;28;20068;-59
2021/08/31 00:15:18;;;;;;;18.77;4.50;;;14.90;99.90;;;;;;5063167;28;20035;-58
2021/08/31 00:17:44;;;;;;;19.92;4.47;;;14.90;99.90;;;;;;5033602;28;20045;-59
2021/08/31 00:20:10;;;;;;;17.90;4.38;;;14.90;99.90;;;;;;5033708;28;20069;-58
2021/08/31 00:22:37;;;;;;;17.98;4.43;;;14.90;99.90;;;;;;5032989;28;20100;-58
2021/08/31 00:25:05;;;;;;;14.35;4.10;;;14.80;99.90;;;;;;5033529;28;20087;-58
2021/08/31 00:27:31;;;;;;;18.80;4.20;;;14.80;99.90;;;;;;5033561;28;20471;-61
2021/08/31 00:29:57;;;;;;;18.98;4.32;;;14.90;99.90;;;;;;5032961;28;20060;-58
2021/08/31 00:32:22;;;;;;;16.55;4.05;;;14.90;99.90;;;;;;5033398;28;20494;-57
2021/08/31 00:34:48;;;;;;;17.45;4.15;;;14.80;99.90;;;;;;5032982;28;20038;-58
2021/08/31 00:37:13;;;;;;;17.17;4.10;;;14.80;99.90;;;;;;5033785;28;20103;-60
2021/08/31 00:39:39;;;;;;;16.83;4.15;;;14.80;99.90;;;;;;5032974;28;20029;-59
2021/08/31 00:42:05;;;;;;;22.17;4.97;;;14.80;99.90;;;;;;5033500;28;20025;-58
2021/08/31 00:44:31;;;;;;;12.45;4.25;;;14.70;99.90;;;;;;5032609;28;20083;-59
2021/08/31 00:47:03;;;;;;;19.58;4.72;;;14.70;99.90;;;;;;5033462;28;20100;-59
2021/08/31 00:49:30;;;;;;;19.75;4.35;;;14.70;99.90;;;;;;5032580;28;20029;-60
2021/08/31 00:51:57;;;;;;;17.88;4.03;;;14.80;99.90;;;;;;5032957;28;20434;-59
2021/08/31 00:54:25;;;;;;;13.98;3.63;;;14.70;99.90;;;;;;5032416;28;20365;-59
2021/08/31 00:56:52;;;;;;;21.40;4.40;;;14.80;99.90;;;;;;5032242;28;20030;-59
2021/08/31 00:59:21;;;;;;;23.05;5.18;;;14.80;99.90;;;;;;5032756;28;20044;-60
2021/08/31 01:01:51;;;;;;;16.52;4.15;;;14.80;99.90;;;;;;5033068;28;20022;-61
2021/08/31 01:04:21;;;;;;;14.60;3.83;;;14.80;99.90;;;;;;5032854;28;20087;-59
2021/08/31 01:06:50;;;;;;;13.07;3.80;;;14.80;99.90;;;;;;5032507;28;20029;-59
2021/08/31 01:09:16;;;;;;;21.00;4.70;;;14.80;99.90;;;;;;5032035;28;20037;-59
2021/08/31 01:11:42;;;;;;;17.85;4.82;;;14.80;99.90;;;;;;5064818;28;20430;-59
2021/08/31 01:14:09;;;;;;;13.68;3.72;;;14.80;99.90;;;;;;5032032;28;20491;-59
2021/08/31 01:16:36;;;;;;;21.80;4.47;;;14.80;99.90;;;;;;5032999;28;20026;-61
2021/08/31 01:19:02;;;;;;;12.90;3.95;;;14.80;99.90;;;;;;5031711;28;20036;-59
2021/08/31 01:21:28;;;;;;;19.05;4.60;;;14.80;99.90;;;;;;5032845;28;20116;-58
2021/08/31 01:23:55;;;;;;;19.08;4.63;;;14.70;99.90;;;;;;5031826;28;20034;-61
2021/08/31 01:26:21;;;;;;;15.73;3.90;;;14.70;99.90;;;;;;5032602;28;20112;-60
2021/08/31 01:28:47;;;;;;;23.73;4.57;;;14.70;99.90;;;;;;5031762;28;20132;-59
2021/08/31 01:31:12;;;;;;;19.30;4.20;;;14.70;99.90;;;;;;5032650;28;20021;-59
2021/08/31 01:33:38;;;;;;;24.52;4.70;;;14.70;99.90;;;;;;5031828;28;20077;-58
2021/08/31 01:36:24;;;;;;;16.42;3.92;;;14.70;99.90;;;;;;5032188;28;20025;-58
2021/08/31 01:38:55;;;;;;;22.58;4.10;;;14.70;99.90;;;;;;5031843;28;20347;-60
2021/08/31 01:41:21;;;;;;;16.90;3.97;;;14.70;99.90;;;;;;5032243;28;20029;-60
2021/08/31 01:43:47;;;;;;;15.45;3.88;;;14.80;99.90;;;;;;5031761;28;20079;-61
2021/08/31 01:46:13;;;;;;;19.98;4.50;;;14.80;99.90;;;;;;5032055;28;20030;-59
2021/08/31 01:48:39;;;;;;;17.30;4.30;;;14.70;99.90;;;;;;5031485;28;20132;-59
2021/08/31 01:51:06;;;;;;;16.95;4.18;;;14.80;99.90;;;;;;5032357;28;20117;-62
2021/08/31 01:53:33;;;;;;;14.88;3.78;;;14.70;99.90;;;;;;5031414;28;20091;-58
2021/08/31 01:55:59;;;;;;;18.15;4.00;;;14.70;99.90;;;;;;5032189;28;20324;-59
2021/08/31 01:58:25;;;;;;;19.05;4.13;;;14.70;99.90;;;;;;5031416;28;20036;-61
2021/08/31 02:00:51;;;;;;;25.13;4.70;;;14.70;99.90;;;;;;5031946;28;20060;-59
2021/08/31 02:03:16;;;;;;;13.60;4.18;;;14.70;99.90;;;;;;5031315;28;20057;-58
2021/08/31 02:05:42;;;;;;;15.02;4.00;;;14.70;99.90;;;;;;5047099;28;20535;-58
2021/08/31 02:08:08;;;;;;;14.13;3.63;;;14.70;99.90;;;;;;5031533;28;20034;-60
2021/08/31 02:10:33;;;;;;;18.73;4.13;;;14.70;99.90;;;;;;5030985;28;20056;-61
2021/08/31 02:12:59;;;;;;;23.27;4.55;;;14.70;99.90;;;;;;5031717;28;20033;-60
2021/08/31 02:15:25;;;;;;;16.02;4.10;;;14.70;99.90;;;;;;5030964;28;20373;-59
2021/08/31 02:17:50;;;;;;;20.15;4.47;;;14.70;99.90;;;;;;5032025;28;20037;-58
2021/08/31 02:20:16;;;;;;;20.42;4.72;;;14.70;99.90;;;;;;5030674;28;20369;-58
2021/08/31 02:22:42;;;;;;;13.85;4.00;;;14.70;99.90;;;;;;5031463;28;20484;-59
2021/08/31 02:25:09;;;;;;;18.88;3.80;;;14.70;99.90;;;;;;5030743;28;20032;-58
2021/08/31 02:27:35;;;;;;;13.57;4.15;;;14.80;99.90;;;;;;5031572;28;20021;-58
2021/08/31 02:30:00;;;;;;;17.05;4.10;;;14.70;99.90;;;;;;5030664;28;20511;-59
2021/08/31 02:32:26;;;;;;;15.05;3.80;;;14.70;99.90;;;;;;5031290;28;20044;-59
2021/08/31 02:34:52;;;;;;;12.68;3.80;;;14.60;99.90;;;;;;5030840;28;20025;-59
2021/08/31 02:37:18;;;;;;;20.67;4.28;;;14.60;99.90;;;;;;5031236;28;20040;-61
2021/08/31 02:39:43;;;;;;;21.30;4.22;;;14.60;99.90;;;;;;5030648;28;20025;-59
2021/08/31 02:42:09;;;;;;;12.43;3.55;;;14.60;99.90;;;;;;5031488;28;20022;-59
2021/08/31 02:44:35;;;;;;;13.27;3.67;;;14.60;99.90;;;;;;5030303;28;20033;-58
2021/08/31 02:47:01;;;;;;;18.02;3.83;;;14.60;99.90;;;;;;5031107;28;20044;-59
2021/08/31 02:49:27;;;;;;;13.18;3.67;;;14.60;99.90;;;;;;5030517;28;20033;-60
2021/08/31 02:51:52;;;;;;;13.88;3.60;;;14.50;99.90;;;;;;5030979;28;20033;-60
2021/08/31 02:54:18;;;;;;;17.95;3.67;;;14.60;99.90;;;;;;5030450;28;20374;-58
2021/08/31 02:56:44;;;;;;;17.30;3.63;;;14.60;99.90;;;;;;5031346;28;20029;-58
2021/08/31 02:59:10;;;;;;;14.80;3.70;;;14.60;99.90;;;;;;5030405;28;20447;-59
2021/08/31 03:02:04;;;;;;;11.98;3.65;;;14.60;99.90;;;;;;5030885;28;20117;-59
2021/08/31 03:04:24;;;;;;;12.35;3.70;;;14.60;99.90;;;;;;5029703;28;20120;-58
2021/08/31 03:06:50;;;;;;;19.63;4.18;;;14.60;99.90;;;;;;5030884;28;20543;-59
2021/08/31 03:09:15;;;;;;;18.75;4.03;;;14.50;99.90;;;;;;5030280;28;20096;-59
2021/08/31 03:11:41;;;;;;;16.65;3.97;;;14.50;99.90;;;;;;5030814;28;20087;-60
2021/08/31 03:14:07;;;;;;;20.83;4.10;;;14.50;99.90;;;;;;5030080;28;20125;-59
2021/08/31 03:16:33;;;;;;;19.77;4.30;;;14.60;99.90;;;;;;5031116;28;20076;-57
2021/08/31 03:18:58;;;;;;;18.05;4.18;;;14.60;99.90;;;;;;5031237;28;20760;-59
2021/08/31 03:21:24;;;;;;;18.05;4.03;;;14.60;99.90;;;;;;5054864;28;20094;-59
2021/08/31 03:23:50;;;;;;;20.67;4.03;;;14.60;99.90;;;;;;5054150;28;20467;-59
2021/08/31 03:26:16;;;;;;;15.52;4.05;;;14.60;99.90;;;;;;5054963;28;20033;-61
2021/08/31 03:28:41;;;;;;;13.75;4.10;;;14.50;99.90;;;;;;5053950;28;20085;-59
2021/08/31 03:31:07;;;;;;;16.40;3.97;;;14.50;99.90;;;;;;5040762;28;20107;-58
2021/08/31 03:33:33;;;;;;;23.90;4.25;;;14.50;99.90;;;;;;5054888;28;20032;-60
2021/08/31 03:35:58;;;;;;;14.13;3.70;;;14.50;99.90;;;;;;5053538;28;20037;-59
2021/08/31 03:38:24;;;;;;;16.80;4.20;;;14.60;99.90;;;;;;5054704;28;20029;-59
2021/08/31 03:40:50;;;;;;;23.30;4.47;;;14.60;99.90;;;;;;5053780;28;20032;-60
2021/08/31 03:43:15;;;;;;;16.67;4.03;;;14.50;99.90;;;;;;5054562;28;20455;-59
2021/08/31 03:45:41;;;;;;;17.63;3.97;;;14.60;99.90;;;;;;5053389;28;20112;-59
2021/08/31 03:48:07;;;;;;;13.60;3.90;;;14.50;99.90;;;;;;5054658;28;20025;-58
2021/08/31 03:50:32;;;;;;;13.95;3.92;;;14.50;99.90;;;;;;5053803;28;20044;-59
2021/08/31 03:52:58;;;;;;;18.63;4.07;;;14.60;99.90;;;;;;5054022;28;20056;-58
2021/08/31 03:55:24;;;;;;;18.73;4.40;;;14.50;99.90;;;;;;5053654;28;20028;-59
2021/08/31 03:57:49;;;;;;;15.32;4.20;;;14.50;99.90;;;;;;5054287;28;20033;-58
2021/08/31 04:00:15;;;;;;;18.83;4.38;;;14.40;99.90;;;;;;5051920;28;20032;-62
2021/08/31 04:02:41;;;;;;;20.58;4.05;;;14.40;99.90;;;;;;5054029;28;20467;-60
2021/08/31 04:05:08;;;;;;;31.27;14.15;;;14.40;99.90;;;;;;5053196;28;20032;-58
2021/08/31 04:07:33;;;;;;;17.30;3.97;;;14.40;99.90;;;;;;5054241;28;20075;-58
2021/08/31 04:09:59;;;;;;;15.93;3.70;;;14.40;99.90;;;;;;5053100;28;20507;-58
2021/08/31 04:12:25;;;;;;;11.40;3.40;;;14.30;99.90;;;;;;5052652;28;20033;-60
2021/08/31 04:14:50;;;;;;;16.30;4.60;;;14.30;99.90;;;;;;5039140;28;20029;-59
2021/08/31 04:17:16;;;;;;;9.98;3.63;;;14.30;99.90;;;;;;5054022;28;20086;-61
2021/08/31 04:19:42;;;;;;;18.95;3.65;;;14.30;99.90;;;;;;5052989;28;20073;-60
2021/08/31 04:22:09;;;;;;;22.33;4.55;;;14.30;99.90;;;;;;5053649;28;20028;-59
2021/08/31 04:24:36;;;;;;;11.68;3.50;;;14.30;99.90;;;;;;5053118;28;20112;-59
2021/08/31 04:27:02;;;;;;;19.55;4.57;;;14.30;99.90;;;;;;5053408;28;20028;-59
2021/08/31 04:29:28;;;;;;;17.35;5.20;;;14.30;99.90;;;;;;5053105;28;20079;-60
2021/08/31 04:31:53;;;;;;;18.13;4.47;;;14.30;99.90;;;;;;5053341;28;20025;-60
2021/08/31 04:34:19;;;;;;;17.38;4.57;;;14.20;99.90;;;;;;5052698;28;20029;-58
2021/08/31 04:36:45;;;;;;;22.02;5.00;;;14.20;99.90;;;;;;5053624;28;20025;-60
2021/08/31 04:39:10;;;;;;;17.20;4.57;;;14.20;99.90;;;;;;5048250;28;20112;-60
2021/08/31 04:41:36;;;;;;;16.05;4.32;;;14.20;99.90;;;;;;5033581;28;20446;-62
2021/08/31 04:44:02;;;;;;;18.30;4.68;;;14.20;99.90;;;;;;5050382;28;20017;-59
2021/08/31 04:46:27;;;;;;;16.00;4.57;;;14.20;99.90;;;;;;5052603;28;20025;-60
2021/08/31 04:48:53;;;;;;;18.55;4.65;;;14.20;99.90;;;;;;5053436;28;20075;-57
2021/08/31 04:51:19;;;;;;;20.77;5.15;;;14.20;99.90;;;;;;5052294;28;20454;-58
2021/08/31 04:53:44;;;;;;;18.98;5.22;;;14.20;99.90;;;;;;5053400;28;20355;-60
2021/08/31 04:56:10;;;;;;;14.65;4.10;;;14.30;99.90;;;;;;5052345;28;20399;-59
2021/08/31 04:58:36;;;;;;;13.27;4.85;;;14.20;99.90;;;;;;5053093;28;20075;-59
2021/08/31 05:01:01;;;;;;;18.17;4.40;;;14.30;99.90;;;;;;5040584;28;20029;-58
2021/08/31 05:03:27;;;;;;;22.70;5.50;;;14.30;99.90;;;;;;5053069;28;20036;-59
2021/08/31 05:05:53;;;;;;;21.92;5.10;;;14.20;99.90;;;;;;5052095;28;20025;-60
2021/08/31 05:08:18;;;;;;;22.25;6.82;;;14.20;99.90;;;;;;5053064;28;20090;-61
2021/08/31 05:10:44;;;;;;;23.50;5.40;;;14.20;99.90;;;;;;5052403;28;20041;-59
2021/08/31 05:13:10;;;;;;;22.27;6.47;;;14.20;99.90;;;;;;5044622;28;20029;-61
2021/08/31 05:15:36;;;;;;;20.35;6.72;;;14.20;99.90;;;;;;5050948;28;20489;-61
2021/08/31 05:18:03;;;;;;;18.58;6.57;;;14.20;99.90;;;;;;5052589;28;20033;-58
2021/08/31 05:20:29;;;;;;;20.90;7.18;;;14.20;99.90;;;;;;5052257;28;20068;-60
2021/08/31 05:22:55;;;;;;;23.20;6.70;;;14.20;99.90;;;;;;5052615;28;20064;-59
2021/08/31 05:25:21;;;;;;;19.05;6.70;;;14.20;99.90;;;;;;5084117;28;20029;-58
2021/08/31 05:27:47;;;;;;;15.85;6.88;;;14.10;99.90;;;;;;5052528;28;20025;-58
2021/08/31 05:30:13;;;;;;;16.52;6.65;;;14.10;99.90;;;;;;5051812;28;20037;-60
2021/08/31 05:32:38;;;;;;;18.85;6.90;;;14.00;99.90;;;;;;5052673;28;20105;-60
2021/08/31 05:35:04;;;;;;;15.90;6.47;;;14.00;99.90;;;;;;5051494;28;20416;-58
2021/08/31 05:37:30;;;;;;;15.73;6.30;;;14.00;99.90;;;;;;5047126;28;20037;-58
2021/08/31 05:39:56;;;;;;;17.15;6.68;;;14.00;99.90;;;;;;5043453;28;20049;-59
2021/08/31 05:42:22;;;;;;;19.77;6.82;;;14.00;99.90;;;;;;5051376;28;20029;-61
2021/08/31 05:44:48;;;;;;;21.67;7.30;;;14.00;99.90;;;;;;5052374;28;20024;-61
2021/08/31 05:47:13;;;;;;;19.35;6.70;;;14.00;99.90;;;;;;5051962;28;20031;-60
2021/08/31 05:49:40;;;;;;;18.33;6.72;;;14.10;99.90;;;;;;5052410;28;20135;-58
2021/08/31 05:52:06;;;;;;;24.23;8.15;;;14.10;99.90;;;;;;5051982;28;20025;-60
2021/08/31 05:54:32;;;;;;;25.55;8.30;;;14.00;99.90;;;;;;5051995;28;20036;-58
2021/08/31 05:57:00;;;;;;;17.55;7.32;;;14.10;99.90;;;;;;5051414;28;20032;-58
2021/08/31 05:59:25;;;;;;;20.98;6.80;;;14.00;99.90;;;;;;5050536;28;20029;-59
2021/08/31 06:01:51;;;;;;;20.25;7.00;;;14.10;99.90;;;;;;5041093;28;20039;-58
2021/08/31 06:04:17;;;;;;;25.52;7.82;;;14.10;99.90;;;;;;5051753;28;20029;-59
2021/08/31 06:06:43;;;;;;;22.08;7.20;;;14.10;99.90;;;;;;5050886;28;20024;-60
2021/08/31 06:09:08;;;;;;;18.13;6.82;;;14.20;99.90;;;;;;5051724;28;20025;-60
2021/08/31 06:11:38;;;;;;;20.00;6.95;;;14.20;99.90;;;;;;5050756;28;20025;-59
2021/08/31 06:14:07;;;;;;;20.92;7.25;;;14.30;99.90;;;;;;5039741;28;20021;-59
2021/08/31 06:16:33;;;;;;;17.45;6.80;;;14.30;99.90;;;;;;5049438;28;20036;-59
2021/08/31 06:19:01;;;;;;;19.35;6.50;;;14.30;99.90;;;;;;5051534;28;20391;-60
2021/08/31 06:21:27;;;;;;;21.98;6.97;;;14.30;99.90;;;;;;5050434;28;20021;-59
2021/08/31 06:23:52;;;;;;;26.33;7.35;;;14.30;99.90;;;;;;5051563;28;20383;-57
2021/08/31 06:26:18;;;;;;;30.33;7.40;;;14.30;99.90;;;;;;5050819;28;20039;-59
2021/08/31 06:28:44;;;;;;;20.08;6.78;;;14.30;99.90;;;;;;5049775;28;20117;-61
2021/08/31 06:31:10;;;;;;;29.65;7.00;;;14.40;99.90;;;;;;5050526;28;20082;-60
2021/08/31 06:33:35;;;;;;;20.52;6.50;;;14.40;99.90;;;;;;5051030;28;20383;-58
2021/08/31 06:36:01;;;;;;;21.75;6.30;;;14.50;99.90;;;;;;5050452;28;20495;-60
2021/08/31 06:38:27;;;;;;;23.20;6.47;;;14.40;99.90;;;;;;5050764;28;20029;-58
2021/08/31 06:40:53;;;;;;;23.27;6.25;;;14.60;99.90;;;;;;5050490;28;20032;-59
2021/08/31 06:43:18;;;;;;;17.98;6.30;;;14.60;99.90;;;;;;5051244;28;20515;-59
2021/08/31 06:45:45;;;;;;;14.05;5.00;;;14.60;99.90;;;;;;5050054;28;20040;-59
2021/08/31 06:48:10;;;;;;;17.23;6.38;;;14.60;99.90;;;;;;5051220;28;20035;-58
2021/08/31 06:50:36;;;;;;;16.85;5.55;;;14.60;99.90;;;;;;5050037;28;20395;-58
2021/08/31 06:53:02;;;;;;;20.17;5.90;;;14.60;99.90;;;;;;5050861;28;20044;-59
2021/08/31 06:55:28;;;;;;;16.85;5.15;;;14.60;99.90;;;;;;5050421;28;20041;-62
2021/08/31 06:57:54;;;;;;;15.52;5.72;;;14.50;99.90;;;;;;5050594;28;20057;-60
2021/08/31 07:00:19;;;;;;;15.30;5.30;;;14.50;99.90;;;;;;5040404;28;20039;-60
2021/08/31 07:02:45;;;;;;;14.20;4.43;;;14.50;99.90;;;;;;5047769;28;20029;-59
2021/08/31 07:05:11;;;;;;;19.23;5.60;;;14.60;99.90;;;;;;5040047;28;20470;-60
2021/08/31 07:07:37;;;;;;;14.55;5.32;;;14.50;99.90;;;;;;5031986;28;20034;-61
2021/08/31 07:10:04;;;;;;;16.17;5.40;;;14.70;99.90;;;;;;5050724;28;20035;-60
2021/08/31 07:12:29;;;;;;;12.45;5.00;;;14.70;99.90;;;;;;5050206;28;20029;-59
2021/08/31 07:14:57;;;;;;;15.18;5.28;;;14.70;99.90;;;;;;5050390;28;20060;-60
2021/08/31 07:17:23;;;;;;;11.85;5.88;;;14.70;99.90;;;;;;5049986;28;20388;-59
2021/08/31 07:19:49;;;;;;;20.38;6.35;;;14.70;99.90;;;;;;5050745;28;20043;-60
2021/08/31 07:22:17;;;;;;;16.05;6.68;;;14.70;99.90;;;;;;5049956;28;20074;-59
2021/08/31 07:24:43;;;;;;;19.73;6.70;;;14.80;99.90;;;;;;5048724;28;20036;-61
2021/08/31 07:27:08;;;;;;;14.88;5.93;;;14.80;99.90;;;;;;5037920;28;20087;-60
2021/08/31 07:29:34;;;;;;;20.10;6.88;;;14.80;99.90;;;;;;5050771;28;20060;-59
2021/08/31 07:32:00;;;;;;;11.90;6.15;;;14.70;99.90;;;;;;5049553;28;20108;-59
2021/08/31 07:34:28;;;;;;;18.65;7.15;;;14.80;99.90;;;;;;5050911;28;20025;-61
2021/08/31 07:36:54;;;;;;;16.90;6.40;;;14.70;99.90;;;;;;5035792;28;20091;-60
2021/08/31 07:39:20;;;;;;;18.30;7.25;;;14.70;99.90;;;;;;5050576;28;20032;-61
2021/08/31 07:41:46;;;;;;;15.25;8.35;;;14.80;99.90;;;;;;5049658;28;20443;-60
2021/08/31 07:44:11;;;;;;;14.43;5.97;;;14.70;99.90;;;;;;5050399;28;20086;-60
2021/08/31 07:46:38;;;;;;;13.63;5.53;;;14.70;99.90;;;;;;5049704;28;20063;-59
2021/08/31 07:49:04;;;;;;;16.35;5.97;;;14.70;99.90;;;;;;5050182;28;20033;-60
2021/08/31 07:51:30;;;;;;;18.08;6.20;;;14.70;99.90;;;;;;5049707;28;20025;-60
2021/08/31 07:53:55;;;;;;;18.85;6.53;;;14.80;99.90;;;;;;5050298;28;20029;-60
2021/08/31 07:56:21;;;;;;;25.40;6.70;;;14.80;99.90;;;;;;5048263;28;20025;-61
2021/08/31 07:58:47;;;;;;;21.52;6.70;;;14.90;99.90;;;;;;5050307;28;20029;-60
2021/08/31 08:01:12;;;;;;;20.17;6.75;;;14.90;99.90;;;;;;5037510;28;20036;-60
2021/08/31 08:03:38;;;;;;;21.58;6.88;;;14.90;99.90;;;;;;5050528;28;20036;-61
2021/08/31 08:06:04;;;;;;;19.73;6.57;;;14.90;99.90;;;;;;5052237;28;20040;-59
2021/08/31 08:08:29;;;;;;;16.75;6.55;;;15.00;99.90;;;;;;5053965;28;20340;-60
2021/08/31 08:10:55;;;;;;;21.20;6.10;;;15.10;99.90;;;;;;5053300;28;20395;-60
2021/08/31 08:13:20;;;;;;;17.50;5.63;;;15.10;99.90;;;;;;5053873;28;20035;-60
2021/08/31 08:15:46;;;;;;;18.67;6.70;;;15.20;99.90;;;;;;5053426;28;20037;-61
2021/08/31 08:18:12;;;;;;;16.40;5.85;;;15.10;99.90;;;;;;5053761;28;20463;-61
2021/08/31 08:20:43;;;;;;;17.48;5.72;;;15.10;99.90;;;;;;5053574;28;20029;-60
2021/08/31 08:23:09;;;;;;;18.02;5.20;;;15.20;99.90;;;;;;5053395;28;20028;-61
2021/08/31 08:25:35;;;;;;;16.42;5.03;;;15.20;99.90;;;;;;5054005;28;20372;-58
2021/08/31 08:28:00;;;;;;;16.48;5.28;;;15.20;99.90;;;;;;5052795;28;20041;-61
2021/08/31 08:30:26;;;;;;;18.52;5.70;;;15.20;99.90;;;;;;5053625;28;20479;-62
2021/08/31 08:32:52;;;;;;;18.83;5.38;;;15.20;99.90;;;;;;5053019;28;20533;-61
2021/08/31 08:35:17;;;;;;;16.13;4.57;;;15.30;99.90;;;;;;5052398;28;20344;-59
2021/08/31 08:37:43;;;;;;;12.45;4.30;;;15.40;99.90;;;;;;5039755;28;20467;-58
2021/08/31 08:40:10;;;;;;;14.40;4.55;;;15.40;99.90;;;;;;5053734;28;20082;-59
2021/08/31 08:42:39;;;;;;;23.10;7.85;;;15.40;99.90;;;;;;5052448;28;20032;-60
2021/08/31 08:45:07;;;;;;;16.98;4.18;;;15.50;99.90;;;;;;5053298;28;20032;-59
2021/08/31 08:47:33;;;;;;;15.20;5.30;;;15.50;99.90;;;;;;5052619;28;20017;-60
2021/08/31 08:49:59;;;;;;;11.65;4.20;;;15.50;99.90;;;;;;5053409;28;20565;-59
2021/08/31 08:52:25;;;;;;;11.55;4.22;;;15.60;99.90;;;;;;5051980;28;20112;-59
2021/08/31 08:54:51;;;;;;;15.63;4.45;;;15.60;99.90;;;;;;5053134;28;20104;-62
2021/08/31 08:57:25;;;;;;;12.10;3.85;;;15.70;99.90;;;;;;5052339;28;20458;-60
2021/08/31 08:59:51;;;;;;;19.37;4.77;;;15.80;99.90;;;;;;5048941;28;20034;-60
2021/08/31 09:02:38;;;;;;;18.55;7.15;;;15.80;99.90;;;;;;5045565;28;20544;-60
2021/08/31 09:05:13;;;;;;;18.90;4.90;;;15.90;99.90;;;;;;5053178;28;20060;-59
2021/08/31 09:07:40;;;;;;;;;;;15.90;99.90;;;;;;5052462;28;20513;-59
2021/08/31 09:10:12;;;;;;;17.45;4.63;;;16.00;99.90;;;;;;5041138;28;20457;-61
2021/08/31 09:12:38;;;;;;;13.88;4.57;;;16.10;99.90;;;;;;5052101;28;20083;-61
2021/08/31 09:15:26;;;;;;;15.23;4.85;;;16.10;99.90;;;;;;5052875;28;20467;-60
2021/08/31 09:18:15;;;;;;;15.00;4.70;;;16.20;99.90;;;;;;5050817;28;20033;-61
2021/08/31 09:20:56;;;;;;;14.23;4.75;;;16.20;99.90;;;;;;5052887;28;20029;-61
2021/08/31 09:23:24;;;;;;;12.85;4.43;;;16.30;99.90;;;;;;5051669;28;20033;-58
2021/08/31 09:25:52;;;;;;;18.00;4.65;;;16.30;99.90;;;;;;5052772;28;20105;-59
2021/08/31 09:28:21;;;;;;;22.10;4.47;;;16.40;99.90;;;;;;5051737;28;20044;-59
2021/08/31 09:30:58;;;;;;;12.73;4.18;;;16.50;99.90;;;;;;5052524;28;20036;-60
2021/08/31 09:33:26;;;;;;;13.10;4.20;;;16.60;99.90;;;;;;5038240;28;20026;-60
2021/08/31 09:36:10;;;;;;;12.68;4.00;;;16.60;99.90;;;;;;5052246;28;20072;-60
2021/08/31 09:38:51;;;;;;;9.73;3.67;;;16.80;99.90;;;;;;5051517;28;20048;-60
2021/08/31 09:41:38;;;;;;;16.00;4.07;;;16.80;99.90;;;;;;5040282;28;20021;-59
2021/08/31 09:44:08;;;;;;;15.20;3.88;;;17.00;99.90;;;;;;5050836;28;20107;-60
2021/08/31 09:46:56;;;;;;;18.40;3.90;;;17.00;99.90;;;;;;5052015;28;20187;-61
2021/08/31 09:49:25;;;;;;;21.67;5.35;;;17.10;99.90;;;;;;5052022;28;20035;-59
2021/08/31 09:52:09;;;;;;;16.35;4.82;;;17.20;99.90;;;;;;5051201;28;20025;-62
2021/08/31 09:54:48;;;;;;;9.38;3.55;;;17.20;99.90;;;;;;5046872;28;20033;-61
2021/08/31 09:57:41;;;;;;;14.95;4.00;;;17.20;99.90;;;;;;5030833;28;20025;-60
2021/08/31 10:00:10;;;;;;;17.50;3.95;;;17.30;99.90;;;;;;5031775;28;20586;-60
2021/08/31 10:02:37;;;;;;;19.02;4.20;;;17.30;99.90;;;;;;5046637;28;20032;-59
2021/08/31 10:05:04;;;;;;;17.15;4.35;;;17.40;99.90;;;;;;5031749;28;20113;-58
2021/08/31 10:07:32;;;;;;;14.13;3.97;;;17.40;99.90;;;;;;5031171;28;20100;-60
2021/08/31 10:10:00;;;;;;;11.55;4.13;;;17.40;99.90;;;;;;5031854;28;20069;-63
2021/08/31 10:12:26;;;;;;;11.27;3.60;;;17.30;99.90;;;;;;5030591;28;20033;-60
2021/08/31 10:14:55;;;;;;;10.57;3.67;;;17.20;99.90;;;;;;5031700;28;20482;-59
2021/08/31 10:17:24;;;;;;;17.10;4.15;;;17.30;99.90;;;;;;5030855;28;20033;-60
2021/08/31 10:19:51;;;;;;;15.73;3.88;;;17.40;99.90;;;;;;5031587;28;20411;-61
2021/08/31 10:22:18;;;;;;;10.88;3.83;;;17.40;99.90;;;;;;5045880;28;20498;-60
2021/08/31 10:24:45;;;;;;;17.27;3.53;;;17.40;99.90;;;;;;5031523;28;20132;-61
2021/08/31 10:27:37;;;;;;;10.52;3.53;;;17.50;99.90;;;;;;5034815;28;20037;-60
2021/08/31 10:30:21;;;;;;;10.70;3.75;;;17.50;99.90;;;;;;5051177;28;20048;-60
2021/08/31 10:32:50;;;;;;;13.18;3.72;;;17.40;99.90;;;;;;5027341;28;20136;-60
2021/08/31 10:35:32;;;;;;;13.90;4.03;;;17.40;99.90;;;;;;5051146;28;20033;-59
2021/08/31 10:37:59;;;;;;;15.23;3.50;;;17.40;99.90;;;;;;5050606;28;20033;-60
2021/08/31 10:40:39;;;;;;;16.35;4.65;;;17.40;99.90;;;;;;5051076;28;20037;-60
2021/08/31 10:43:07;;;;;;;12.05;3.70;;;17.40;99.90;;;;;;5050330;28;20028;-60
2021/08/31 10:45:36;;;;;;;12.63;4.00;;;17.40;99.90;;;;;;5050820;28;20040;-60
2021/08/31 10:48:22;;;;;;;16.65;4.32;;;17.40;99.90;;;;;;5050154;28;20676;-61
2021/08/31 10:50:59;;;;;;;12.57;3.92;;;17.40;99.90;;;;;;5053404;28;20044;-58
2021/08/31 10:53:42;;;;;;;12.70;3.92;;;17.40;99.90;;;;;;5049974;28;20032;-60
2021/08/31 10:56:23;;;;;;;12.30;3.85;;;17.50;99.90;;;;;;5050571;28;20471;-60
2021/08/31 10:59:04;;;;;;;13.98;4.03;;;17.60;99.90;;;;;;5050230;28;20040;-61
2021/08/31 11:01:39;;;;;;;14.48;4.28;;;17.60;99.90;;;;;;5039293;28;20029;-61
2021/08/31 11:04:31;;;;;;;15.60;3.47;;;17.70;99.90;;;;;;5049859;28;20418;-60
2021/08/31 11:07:02;;;;;;;11.00;3.60;;;17.70;99.90;;;;;;5050851;28;20040;-61
2021/08/31 11:09:28;;;;;;;14.07;4.00;;;17.80;99.90;;;;;;5037777;28;20391;-60
2021/08/31 11:12:04;;;;;;;13.02;4.00;;;17.90;99.90;;;;;;5050181;28;20068;-60
2021/08/31 11:14:51;;;;;;;12.40;3.63;;;17.90;99.90;;;;;;5050479;28;20374;-60
2021/08/31 11:17:35;;;;;;;20.17;3.90;;;17.90;99.90;;;;;;5050373;28;20029;-61
2021/08/31 11:20:21;;;;;;;15.88;3.92;;;18.00;99.90;;;;;;5050628;28;20029;-62
2021/08/31 11:22:50;;;;;;;15.70;4.15;;;17.90;99.90;;;;;;5049501;28;20029;-59
2021/08/31 11:25:30;;;;;;;15.27;4.00;;;17.90;99.90;;;;;;5050754;28;20027;-59
2021/08/31 11:27:58;;;;;;;17.60;4.15;;;17.80;99.90;;;;;;5049594;28;20456;-59
2021/08/31 11:30:25;;;;;;;13.02;4.30;;;17.60;99.90;;;;;;5050628;28;20037;-60
2021/08/31 11:33:15;;;;;;;15.38;4.22;;;17.50;99.90;;;;;;5049665;28;20366;-60
2021/08/31 11:35:41;;;;;;;19.73;4.53;;;17.60;99.90;;;;;;5050773;28;20471;-59
2021/08/31 11:38:07;;;;;;;12.35;3.50;;;17.60;99.90;;;;;;5049451;28;20060;-59
2021/08/31 11:40:33;;;;;;;12.15;3.97;;;17.60;99.90;;;;;;5038479;28;20104;-62
2021/08/31 11:42:59;;;;;;;13.18;3.67;;;17.60;99.90;;;;;;5053770;28;20108;-61
2021/08/31 11:45:39;;;;;;;13.60;4.05;;;17.60;99.90;;;;;;5054254;28;20049;-61
2021/08/31 11:48:09;;;;;;;10.75;3.92;;;17.70;99.90;;;;;;5053886;28;20539;-62
2021/08/31 11:50:36;;;;;;;14.27;4.15;;;17.80;99.90;;;;;;5054374;28;20036;-61
2021/08/31 11:53:19;;;;;;;9.50;3.42;;;17.90;99.90;;;;;;5053721;28;20051;-60
2021/08/31 11:55:58;;;;;;;17.90;4.22;;;18.00;99.90;;;;;;5053029;28;20119;-60
2021/08/31 11:58:25;;;;;;;13.80;3.95;;;18.00;99.90;;;;;;5053556;28;20491;-60
2021/08/31 12:00:51;;;;;;;17.92;4.38;;;18.20;99.90;;;;;;5042437;28;20075;-59
2021/08/31 12:03:27;;;;;;;11.98;3.80;;;18.30;99.90;;;;;;5053308;28;20404;-61
2021/08/31 12:06:13;;;;;;;17.02;3.63;;;18.40;99.90;;;;;;5040015;28;20060;-61
2021/08/31 12:08:42;;;;;;;18.13;4.75;;;18.40;99.90;;;;;;5052441;28;20051;-61
2021/08/31 12:11:10;;;;;;;8.10;3.40;;;18.50;99.90;;;;;;5053689;28;20082;-60
2021/08/31 12:13:36;;;;;;;16.65;4.32;;;18.60;99.90;;;;;;5053167;28;20024;-60
2021/08/31 12:16:03;;;;;;;12.57;3.78;;;18.60;99.90;;;;;;5053691;28;20369;-61
2021/08/31 12:18:30;;;;;;;12.23;3.83;;;18.60;99.90;;;;;;5053090;28;20040;-61
2021/08/31 12:21:19;;;;;;;14.07;5.20;;;18.80;99.90;;;;;;5053655;28;20391;-59
2021/08/31 12:23:46;;;;;;;11.98;3.70;;;18.80;99.90;;;;;;5052901;28;20033;-62
2021/08/31 12:26:30;;;;;;;11.65;3.35;;;18.70;99.90;;;;;;5053613;28;20033;-60
2021/08/31 12:29:06;;;;;;;10.77;3.15;;;18.40;99.90;;;;;;5051513;28;20056;-60
2021/08/31 12:31:33;;;;;;;8.25;3.10;;;18.20;99.90;;;;;;5053775;28;20452;-59
2021/08/31 12:33:59;;;;;;;6.05;2.22;;;18.10;99.90;;;;;;5051323;28;20114;-60
2021/08/31 12:36:34;;;;;;;5.05;2.72;;;17.90;99.90;;;;;;5053577;28;20122;-60
2021/08/31 12:39:06;;;;;;;;;;;17.80;99.90;;;;;;5053109;28;20047;-60
2021/08/31 12:41:41;;;;;;;9.05;3.10;;;17.60;99.90;;;;;;5053532;28;20385;-60
2021/08/31 12:44:15;;;;;;;11.18;3.85;;;17.70;99.90;;;;;;5052469;28;20544;-60